createdAt,value
2022-10-11T00:00:16.651Z,12.48
2022-10-11T00:01:16.095Z,12.48
2022-10-11T00:02:16.354Z,12.51
2022-10-11T00:03:16.680Z,12.52
2022-10-11T00:04:17.009Z,12.54
2022-10-11T00:05:17.362Z,12.52
2022-10-11T00:06:17.576Z,12.54
2022-10-11T00:07:17.884Z,12.51
2022-10-11T00:08:18.203Z,12.52
2022-10-11T00:09:18.517Z,12.51
2022-10-11T00:10:18.851Z,12.51
2022-10-11T00:11:19.065Z,12.52
2022-10-11T00:12:20.592Z,12.52
2022-10-11T00:13:19.614Z,12.49
2022-10-11T00:14:19.981Z,12.51
2022-10-11T00:15:20.177Z,12.49
2022-10-11T00:16:20.491Z,12.46
2022-10-11T00:17:20.805Z,12.45
2022-10-11T00:18:21.113Z,12.45
2022-10-11T00:19:25.283Z,12.45
2022-10-11T00:20:25.472Z,12.46
2022-10-11T00:21:21.960Z,12.49
2022-10-11T00:22:22.196Z,12.48
2022-10-11T00:23:22.557Z,12.49
2022-10-11T00:24:23.524Z,12.51
2022-10-11T00:25:23.948Z,12.51
2022-10-11T00:26:23.335Z,12.54
2022-10-11T00:27:23.658Z,12.54
2022-10-11T00:28:24.027Z,12.54
2022-10-11T00:29:24.246Z,12.59
2022-10-11T00:30:24.565Z,12.60
2022-10-11T00:31:24.873Z,12.63
2022-10-11T00:33:39.624Z,12.67
2022-10-11T00:34:39.923Z,12.69
2022-10-11T00:35:40.222Z,12.70
2022-10-11T00:36:40.565Z,12.74
2022-10-11T00:37:40.767Z,12.77
2022-10-11T00:38:41.076Z,12.77
2022-10-11T00:39:41.400Z,12.78
2022-10-11T00:40:41.708Z,12.79
2022-10-11T00:41:42.024Z,12.82
2022-10-11T00:42:42.335Z,12.82
2022-10-11T00:43:42.649Z,12.85
2022-10-11T00:44:42.963Z,12.84
2022-10-11T00:45:43.282Z,12.85
2022-10-11T00:46:43.657Z,12.87
2022-10-11T00:47:43.859Z,12.88
2022-10-11T00:48:44.172Z,12.88
2022-10-11T00:49:44.480Z,12.87
2022-10-11T00:50:44.791Z,12.85
2022-10-11T00:51:45.133Z,12.84
2022-10-11T02:55:31.764Z,13.04
2022-10-11T02:56:32.002Z,13.07
2022-10-11T02:57:32.236Z,13.09
2022-10-11T02:58:32.463Z,13.07
2022-10-11T02:59:32.786Z,13.07
2022-10-11T03:00:33.157Z,13.07
2022-10-11T03:01:33.484Z,13.06
2022-10-11T03:02:33.597Z,13.06
2022-10-11T03:03:33.934Z,13.06
2022-10-11T03:04:34.309Z,13.07
2022-10-11T03:05:34.519Z,13.09
2022-10-11T03:06:34.846Z,13.09
2022-10-11T03:07:35.180Z,13.09
2022-10-11T03:08:35.388Z,13.07
2022-10-11T03:09:35.751Z,13.09
2022-10-11T03:10:35.960Z,13.09
2022-10-11T03:11:36.376Z,13.09
2022-10-11T03:12:36.608Z,13.06
2022-10-11T03:13:36.825Z,13.06
2022-10-11T03:14:37.171Z,13.07
2022-10-11T03:15:37.378Z,13.03
2022-10-11T03:16:37.696Z,13.03
2022-10-11T03:17:38.001Z,13.00
2022-10-11T03:18:38.322Z,13.00
2022-10-11T03:19:38.672Z,13.00
2022-10-11T03:20:38.920Z,13.02
2022-10-11T03:21:39.128Z,13.04
2022-10-11T03:22:39.462Z,13.04
2022-10-11T03:23:39.680Z,13.06
2022-10-11T03:24:39.996Z,13.09
2022-10-11T03:25:40.342Z,13.09
2022-10-11T03:26:40.566Z,13.09
2022-10-11T03:27:40.773Z,13.09
2022-10-11T03:28:41.177Z,13.09
2022-10-11T03:29:42.287Z,13.09
2022-10-11T03:30:41.643Z,13.09
2022-10-11T03:31:41.987Z,13.06
2022-10-11T03:32:42.302Z,13.04
2022-10-11T03:33:42.616Z,13.06
2022-10-11T03:34:42.909Z,13.07
2022-10-11T03:35:43.232Z,13.06
2022-10-11T03:36:43.572Z,13.06
2022-10-11T03:37:43.881Z,13.09
2022-10-11T03:38:44.234Z,13.09
2022-10-11T03:39:44.417Z,13.09
2022-10-11T03:40:44.710Z,13.11
2022-10-11T03:41:45.059Z,13.12
2022-10-11T03:42:45.282Z,13.14
2022-10-11T03:43:45.499Z,13.14
2022-10-11T03:44:45.819Z,13.17
2022-10-11T03:45:46.136Z,13.15
2022-10-11T03:46:46.450Z,13.17
2022-10-11T03:47:46.780Z,13.17
2022-10-11T03:48:47.099Z,13.18
2022-10-11T03:49:47.421Z,13.20
2022-10-11T03:50:47.735Z,13.20
2022-10-11T03:51:48.095Z,13.20
2022-10-11T03:52:48.287Z,13.20
2022-10-11T03:53:48.631Z,13.18
2022-10-11T03:54:48.829Z,13.20
2022-10-11T03:55:49.163Z,13.18
2022-10-11T03:56:49.368Z,13.20
2022-10-11T03:57:49.669Z,13.20
2022-10-11T03:58:49.988Z,13.20
2022-10-11T03:59:52.146Z,13.18
2022-10-11T04:00:50.590Z,13.18
2022-10-11T04:01:50.966Z,13.21
2022-10-11T04:02:51.189Z,13.24
2022-10-11T04:03:51.501Z,13.25
2022-10-11T04:04:51.789Z,13.29
2022-10-11T04:05:52.110Z,13.29
2022-10-11T04:06:52.452Z,13.30
2022-10-11T04:07:52.659Z,13.29
2022-10-11T04:08:53.008Z,13.27
2022-10-11T04:09:53.312Z,13.27
2022-10-11T04:10:55.420Z,13.24
2022-10-11T04:11:53.838Z,13.24
2022-10-11T04:12:54.194Z,13.24
2022-10-11T04:13:54.406Z,13.24
2022-10-11T04:14:54.717Z,13.24
2022-10-11T04:15:55.128Z,13.21
2022-10-11T04:16:58.404Z,13.20
2022-10-11T04:17:56.658Z,13.20
2022-10-11T04:18:55.939Z,13.18
2022-10-11T04:19:56.137Z,13.18
2022-10-11T04:20:56.456Z,13.18
2022-10-11T04:21:56.784Z,13.17
2022-10-11T04:22:57.108Z,13.17
2022-10-11T04:23:57.461Z,13.15
2022-10-11T04:24:57.655Z,13.14
2022-10-11T04:25:57.993Z,13.14
2022-10-11T04:26:58.187Z,13.12
2022-10-11T04:27:58.500Z,13.14
2022-10-11T04:28:58.941Z,13.17
2022-10-11T04:29:59.026Z,13.20
2022-10-11T04:30:59.372Z,13.20
2022-10-11T04:31:59.709Z,13.22
2022-10-11T04:32:59.917Z,13.22
2022-10-11T04:34:00.266Z,13.22
2022-10-11T04:35:00.579Z,13.22
2022-10-11T04:36:01.019Z,13.24
2022-10-11T04:37:01.126Z,13.25
2022-10-11T04:38:01.808Z,13.29
2022-10-11T04:39:01.904Z,13.27
2022-10-11T04:40:02.021Z,13.27
2022-10-11T04:41:02.366Z,13.27
2022-10-11T04:42:02.708Z,13.27
2022-10-11T04:43:02.903Z,13.27
2022-10-11T04:44:03.192Z,13.25
2022-10-11T04:45:03.505Z,13.25
2022-10-11T04:46:04.193Z,13.24
2022-10-11T04:47:04.147Z,13.25
2022-10-11T04:48:04.457Z,13.24
2022-10-11T04:49:04.769Z,13.22
2022-10-11T04:50:05.093Z,13.24
2022-10-11T04:51:05.397Z,13.25
2022-10-11T04:52:05.781Z,13.27
2022-10-11T04:53:06.781Z,13.25
2022-10-11T04:54:06.968Z,13.27
2022-10-11T04:55:06.584Z,13.24
2022-10-11T04:56:07.351Z,13.22
2022-10-11T04:57:07.228Z,13.21
2022-10-11T04:58:07.583Z,13.20
2022-10-11T04:59:07.785Z,13.21
2022-10-11T05:00:08.099Z,13.24
2022-10-11T05:01:08.423Z,13.25
2022-10-11T05:02:08.850Z,13.22
2022-10-11T05:03:08.970Z,13.21
2022-10-11T05:04:09.263Z,13.18
2022-10-11T05:05:09.603Z,13.18
2022-10-11T05:06:10.176Z,13.20
2022-10-11T05:07:10.255Z,13.17
2022-10-11T05:08:10.568Z,13.17
2022-10-11T05:09:10.869Z,13.14
2022-10-11T05:10:11.191Z,13.17
2022-10-11T05:11:11.393Z,13.12
2022-10-11T05:12:11.742Z,13.14
2022-10-11T05:13:11.930Z,13.14
2022-10-11T05:14:12.283Z,13.09
2022-10-11T05:15:14.289Z,13.06
2022-10-11T05:16:13.030Z,13.06
2022-10-11T05:17:13.008Z,13.04
2022-10-11T05:18:13.236Z,13.04
2022-10-11T05:19:13.428Z,13.04
2022-10-11T05:20:13.753Z,13.06
2022-10-11T05:21:14.051Z,13.04
2022-10-11T05:22:14.344Z,13.03
2022-10-11T05:23:14.688Z,13.02
2022-10-11T05:24:14.927Z,13.03
2022-10-11T05:25:15.133Z,13.00
2022-10-11T05:26:15.454Z,12.99
2022-10-11T05:27:15.783Z,13.00
2022-10-11T05:28:16.209Z,13.02
2022-10-11T05:29:16.455Z,13.02
2022-10-11T05:30:16.689Z,13.00
2022-10-11T05:31:16.866Z,12.99
2022-10-11T05:32:17.189Z,12.97
2022-10-11T05:33:17.522Z,12.96
2022-10-11T05:34:17.841Z,12.93
2022-10-11T05:35:18.185Z,12.92
2022-10-11T05:36:18.414Z,12.88
2022-10-11T05:37:18.602Z,12.92
2022-10-11T05:38:18.914Z,12.89
2022-10-11T05:39:19.233Z,12.88
2022-10-11T05:40:19.518Z,12.87
2022-10-11T05:41:19.871Z,12.85
2022-10-11T05:42:20.064Z,12.85
2022-10-11T05:43:20.393Z,12.85
2022-10-11T05:44:20.712Z,12.85
2022-10-11T05:45:22.839Z,12.89
2022-10-11T05:46:21.288Z,12.89
2022-10-11T05:47:21.471Z,12.93
2022-10-11T05:48:21.785Z,12.95
2022-10-11T05:49:22.108Z,12.97
2022-10-11T05:50:24.438Z,12.97
2022-10-11T05:51:22.686Z,12.97
2022-10-11T05:52:26.880Z,12.96
2022-10-11T05:53:23.994Z,12.96
2022-10-11T05:54:23.492Z,12.95
2022-10-11T05:55:23.852Z,12.95
2022-10-11T05:56:24.048Z,12.93
2022-10-11T05:57:24.365Z,12.95
2022-10-11T05:58:24.675Z,12.97
2022-10-11T05:59:24.983Z,12.99
2022-10-11T06:00:25.292Z,12.99
2022-10-11T06:01:25.668Z,13.00
2022-10-11T06:02:25.873Z,13.06
2022-10-11T06:03:26.076Z,13.12
2022-10-11T06:04:26.299Z,13.14
2022-10-11T06:05:26.609Z,13.15
2022-10-11T06:06:26.931Z,13.17
2022-10-11T06:07:27.287Z,13.17
2022-10-11T06:08:29.308Z,13.20
2022-10-11T06:09:27.727Z,13.20
2022-10-11T06:10:28.139Z,13.18
2022-10-11T06:11:28.284Z,13.20
2022-10-11T06:12:28.633Z,13.21
2022-10-11T06:13:29.591Z,13.24
2022-10-11T06:14:29.126Z,13.25
2022-10-11T06:15:29.361Z,13.25
2022-10-11T06:16:29.560Z,13.29
2022-10-11T06:17:29.870Z,13.33
2022-10-11T06:18:30.202Z,13.36
2022-10-11T06:19:30.511Z,13.37
2022-10-11T06:20:30.860Z,13.40
2022-10-11T06:21:32.892Z,13.44
2022-10-11T06:22:31.311Z,13.46
2022-10-11T06:23:31.615Z,13.49
2022-10-11T06:24:31.946Z,13.55
2022-10-11T06:25:32.297Z,13.56
2022-10-11T06:26:32.641Z,13.59
2022-10-11T06:27:32.945Z,13.63
2022-10-11T06:28:33.334Z,13.69
2022-10-11T06:29:33.557Z,13.71
2022-10-11T06:30:33.896Z,13.77
2022-10-11T06:31:34.252Z,13.84
2022-10-11T06:32:35.228Z,13.89
2022-10-11T06:33:34.732Z,13.95
2022-10-11T06:34:35.049Z,14.01
2022-10-11T06:35:35.389Z,14.07
2022-10-11T06:36:37.558Z,14.12
2022-10-11T06:37:35.964Z,14.16
2022-10-11T06:38:38.009Z,14.21
2022-10-11T06:39:37.368Z,14.27
2022-10-11T06:40:36.867Z,14.31
2022-10-11T06:41:37.195Z,14.32
2022-10-11T06:42:37.513Z,14.35
2022-10-11T06:43:37.842Z,14.38
2022-10-11T06:44:38.201Z,14.42
2022-10-11T06:45:38.390Z,14.43
2022-10-11T06:46:38.737Z,14.46
2022-10-11T06:47:40.891Z,14.47
2022-10-11T06:48:39.294Z,14.52
2022-10-11T06:49:39.639Z,14.53
2022-10-11T06:50:58.540Z,14.60
2022-10-11T06:51:41.183Z,14.61
2022-10-11T06:52:40.434Z,14.62
2022-10-11T06:53:40.753Z,14.62
2022-10-11T06:54:45.083Z,14.67
2022-10-11T06:55:41.399Z,14.71
2022-10-11T06:56:41.761Z,14.72
2022-10-11T06:57:41.972Z,14.74
2022-10-11T06:58:42.305Z,14.78
2022-10-11T06:59:42.624Z,14.80
2022-10-11T07:00:42.985Z,14.80
2022-10-11T07:01:43.241Z,14.84
2022-10-11T07:02:43.434Z,14.83
2022-10-11T07:03:43.748Z,14.84
2022-10-11T07:04:44.062Z,14.87
2022-10-11T07:05:44.375Z,14.91
2022-10-11T07:06:44.739Z,14.94
2022-10-11T07:07:44.917Z,14.99
2022-10-11T07:08:45.225Z,15.03
2022-10-11T07:09:45.549Z,15.11
2022-10-11T07:10:45.843Z,15.20
2022-10-11T07:11:46.186Z,15.35
2022-10-11T07:12:46.516Z,15.54
2022-10-11T07:13:46.834Z,15.84
2022-10-11T07:14:47.138Z,16.09
2022-10-11T07:15:47.451Z,16.35
2022-10-11T07:16:47.799Z,16.50
2022-10-11T07:17:48.028Z,16.55
2022-10-11T07:18:48.271Z,16.59
2022-10-11T07:19:48.529Z,16.63
2022-10-11T07:20:48.733Z,16.77
2022-10-11T07:21:49.046Z,16.85
2022-10-11T07:22:49.344Z,16.89
2022-10-11T07:23:49.653Z,16.88
2022-10-11T07:24:50.009Z,16.81
2022-10-11T07:25:50.205Z,16.77
2022-10-11T07:26:50.539Z,16.78
2022-10-11T07:27:50.856Z,16.80
2022-10-11T07:28:51.244Z,16.78
2022-10-11T07:29:51.490Z,16.74
2022-10-11T07:30:51.805Z,16.71
2022-10-11T07:31:52.128Z,16.71
2022-10-11T07:32:52.476Z,16.68
2022-10-11T07:33:52.659Z,16.70
2022-10-11T07:34:52.923Z,16.65
2022-10-11T07:35:53.961Z,16.59
2022-10-11T07:36:53.458Z,16.59
2022-10-11T07:37:53.802Z,16.62
2022-10-11T07:38:54.014Z,16.67
2022-10-11T07:39:54.330Z,16.71
2022-10-11T07:40:56.478Z,16.70
2022-10-11T07:41:54.886Z,16.74
2022-10-11T07:42:55.226Z,16.74
2022-10-11T07:43:55.545Z,16.77
2022-10-11T07:44:55.853Z,16.75
2022-10-11T07:45:56.179Z,16.74
2022-10-11T07:46:56.520Z,16.74
2022-10-11T07:47:56.869Z,16.74
2022-10-11T07:48:57.101Z,16.71
2022-10-11T07:49:57.315Z,16.67
2022-10-11T07:50:57.634Z,16.65
2022-10-11T07:51:59.767Z,16.62
2022-10-11T07:52:58.182Z,16.59
2022-10-11T07:54:00.506Z,16.56
2022-10-11T07:54:58.701Z,16.56
2022-10-11T07:55:58.986Z,16.58
2022-10-11T07:56:59.290Z,16.63
2022-10-11T07:57:59.603Z,16.65
2022-10-11T07:58:59.961Z,16.70
2022-10-11T08:00:00.210Z,16.74
2022-10-11T08:01:00.597Z,16.75
2022-10-11T08:02:00.937Z,16.77
2022-10-11T08:03:01.147Z,16.81
2022-10-11T08:04:01.455Z,16.89
2022-10-11T08:05:01.742Z,16.95
2022-10-11T08:06:01.982Z,17.04
2022-10-11T08:07:02.344Z,17.14
2022-10-11T08:08:02.546Z,17.30
2022-10-11T08:09:02.872Z,17.47
2022-10-11T08:10:03.182Z,17.64
2022-10-11T08:11:03.489Z,17.79
2022-10-11T08:12:03.854Z,17.97
2022-10-11T08:13:04.665Z,18.15
2022-10-11T08:14:04.420Z,18.31
2022-10-11T08:15:04.608Z,18.42
2022-10-11T08:16:05.413Z,18.54
2022-10-11T08:17:05.210Z,18.61
2022-10-11T08:18:05.455Z,18.62
2022-10-11T08:19:06.432Z,18.62
2022-10-11T08:20:05.919Z,18.57
2022-10-11T08:21:06.277Z,18.57
2022-10-11T08:22:06.475Z,18.55
2022-10-11T08:23:06.783Z,18.54
2022-10-11T08:24:07.102Z,18.57
2022-10-11T08:25:07.421Z,18.61
2022-10-11T08:26:08.252Z,18.61
2022-10-11T08:27:08.028Z,18.68
2022-10-11T08:28:08.395Z,18.72
2022-10-11T08:29:08.546Z,18.74
2022-10-11T08:30:08.869Z,18.79
2022-10-11T08:31:09.224Z,18.90
2022-10-11T08:32:09.421Z,18.95
2022-10-11T08:33:09.729Z,19.08
2022-10-11T08:34:10.047Z,19.13
2022-10-11T08:35:10.372Z,19.23
2022-10-11T08:36:11.150Z,19.31
2022-10-11T08:37:10.966Z,19.35
2022-10-11T08:38:11.289Z,19.43
2022-10-11T08:39:11.611Z,19.43
2022-10-11T08:40:11.930Z,19.48
2022-10-11T08:41:12.275Z,19.47
2022-10-11T08:42:12.502Z,19.54
2022-10-11T08:43:12.695Z,19.75
2022-10-11T08:44:13.010Z,20.09
2022-10-11T08:45:14.078Z,20.58
2022-10-11T08:46:13.554Z,21.17
2022-10-11T08:47:13.944Z,21.48
2022-10-11T08:48:14.186Z,21.99
2022-10-11T08:49:14.375Z,22.53
2022-10-11T08:50:16.603Z,22.80
2022-10-11T08:51:15.024Z,22.99
2022-10-11T08:52:15.346Z,23.77
2022-10-11T08:53:16.663Z,24.54
2022-10-11T08:54:15.903Z,24.77
2022-10-11T08:55:16.232Z,25.16
2022-10-11T08:56:16.558Z,25.54
2022-10-11T08:57:16.884Z,25.83
2022-10-11T08:58:17.243Z,26.24
2022-10-11T08:59:17.436Z,26.50
2022-10-11T09:00:17.744Z,26.39
2022-10-11T09:01:18.131Z,26.54
2022-10-11T09:02:18.332Z,26.73
2022-10-11T09:03:18.675Z,26.98
2022-10-11T09:04:18.884Z,27.21
2022-10-11T09:05:19.213Z,27.71
2022-10-11T09:06:19.587Z,28.17
2022-10-11T09:07:19.781Z,28.58
2022-10-11T09:08:20.094Z,28.96
2022-10-11T09:09:20.418Z,29.26
2022-10-11T09:10:20.833Z,29.74
2022-10-11T09:11:21.064Z,30.07
2022-10-11T09:12:21.388Z,30.24
2022-10-11T09:13:22.689Z,30.56
2022-10-11T09:14:21.969Z,30.75
2022-10-11T09:15:22.318Z,30.68
2022-10-11T09:16:22.622Z,31.13
2022-10-11T09:17:22.952Z,31.17
2022-10-11T09:18:23.256Z,31.43
2022-10-11T09:19:23.575Z,31.75
2022-10-11T09:20:23.973Z,31.88
2022-10-11T09:21:24.187Z,31.60
2022-10-11T09:22:29.510Z,31.68
2022-10-11T09:23:25.856Z,31.70
2022-10-11T09:24:25.110Z,31.75
2022-10-11T09:25:25.436Z,31.17
2022-10-11T09:26:25.796Z,30.83
2022-10-11T09:27:50.423Z,30.61
2022-10-11T09:28:27.315Z,30.40
2022-10-11T09:29:26.574Z,29.74
2022-10-11T09:30:26.919Z,28.85
2022-10-11T09:31:27.275Z,28.60
2022-10-11T09:32:27.472Z,28.85
2022-10-11T09:33:27.794Z,29.34
2022-10-11T09:34:28.138Z,29.55
2022-10-11T09:35:28.330Z,29.84
2022-10-11T09:36:28.628Z,30.27
2022-10-11T09:37:28.978Z,30.78
2022-10-11T09:38:29.172Z,31.48
2022-10-11T09:39:29.478Z,31.77
2022-10-11T09:40:29.793Z,31.96
2022-10-11T09:41:30.112Z,32.18
2022-10-11T09:42:30.469Z,32.29
2022-10-11T09:43:32.608Z,32.29
2022-10-11T09:44:31.012Z,32.14
2022-10-11T09:45:31.316Z,31.68
2022-10-11T09:46:31.640Z,31.30
2022-10-11T09:47:31.951Z,31.05
2022-10-11T09:48:32.294Z,30.56
2022-10-11T09:49:32.505Z,30.50
2022-10-11T09:50:32.808Z,30.64
2022-10-11T09:51:33.088Z,30.76
2022-10-11T09:52:33.406Z,30.53
2022-10-11T09:53:33.770Z,30.29
2022-10-11T09:54:33.953Z,30.14
2022-10-11T09:55:34.271Z,30.31
2022-10-11T09:56:34.564Z,30.14
2022-10-11T09:57:34.855Z,29.93
2022-10-11T09:58:35.221Z,29.78
2022-10-11T09:59:36.171Z,29.45
2022-10-11T10:00:37.469Z,29.08
2022-10-11T10:01:36.035Z,28.69
2022-10-11T10:02:36.296Z,28.62
2022-10-11T10:03:36.494Z,28.70
2022-10-11T10:04:36.792Z,29.07
2022-10-11T10:05:37.141Z,29.53
2022-10-11T10:06:37.440Z,29.82
2022-10-11T10:07:37.753Z,30.33
2022-10-11T10:08:38.052Z,30.67
2022-10-11T10:09:39.163Z,30.84
2022-10-11T10:10:38.680Z,30.98
2022-10-11T10:11:38.898Z,30.89
2022-10-11T10:12:39.246Z,30.67
2022-10-11T10:13:39.455Z,30.37
2022-10-11T10:14:39.773Z,29.92
2022-10-11T10:15:40.081Z,29.56
2022-10-11T10:16:40.407Z,29.20
2022-10-11T10:17:40.729Z,29.01
2022-10-11T10:18:41.032Z,28.65
2022-10-11T10:19:45.086Z,28.51
2022-10-11T10:20:41.684Z,28.43
2022-10-11T10:21:42.014Z,28.50
2022-10-11T10:22:42.327Z,28.72
2022-10-11T10:23:42.626Z,28.82
2022-10-11T10:24:42.945Z,28.93
2022-10-11T10:25:44.024Z,29.03
2022-10-11T10:26:43.547Z,28.81
2022-10-11T10:27:43.784Z,28.69
2022-10-11T10:28:44.130Z,28.41
2022-10-11T10:29:44.327Z,28.07
2022-10-11T10:30:46.445Z,27.79
2022-10-11T10:32:09.301Z,27.33
2022-10-11T10:32:48.554Z,27.20
2022-10-11T10:33:45.495Z,26.65
2022-10-11T10:34:45.824Z,26.92
2022-10-11T10:35:50.073Z,26.79
2022-10-11T10:36:46.417Z,27.02
2022-10-11T10:37:46.709Z,27.73
2022-10-11T10:38:51.301Z,28.96
2022-10-11T10:39:48.356Z,29.93
2022-10-11T10:40:47.635Z,30.56
2022-10-11T10:41:47.833Z,31.31
2022-10-11T10:42:48.146Z,31.55
2022-10-11T10:43:48.466Z,30.18
2022-10-11T10:44:48.769Z,29.16
2022-10-11T10:45:49.074Z,28.31
2022-10-11T10:46:49.368Z,28.59
2022-10-11T10:47:49.680Z,30.09
2022-10-11T10:49:55.127Z,32.02
2022-10-11T10:50:50.490Z,32.61
2022-10-11T10:51:52.646Z,32.95
2022-10-11T10:52:51.052Z,33.42
2022-10-11T10:53:51.356Z,33.73
2022-10-11T10:54:55.586Z,34.24
2022-10-11T10:55:51.962Z,34.91
2022-10-11T10:56:52.282Z,35.36
2022-10-11T10:57:52.579Z,35.79
2022-10-11T10:58:52.903Z,36.08
2022-10-11T10:59:53.259Z,36.12
2022-10-11T11:00:53.451Z,36.17
2022-10-11T11:01:53.812Z,36.54
2022-10-11T11:02:54.117Z,37.36
2022-10-11T11:03:54.337Z,37.61
2022-10-11T11:04:54.710Z,37.12
2022-10-11T11:05:54.978Z,37.17
2022-10-11T11:06:55.170Z,36.31
2022-10-11T11:07:55.520Z,34.63
2022-10-11T11:08:55.816Z,33.07
2022-10-11T11:09:57.952Z,31.67
2022-10-11T11:10:56.355Z,32.35
2022-10-11T11:11:56.689Z,33.17
2022-10-11T11:13:00.628Z,34.26
2022-10-11T11:13:57.094Z,34.80
2022-10-11T11:14:57.414Z,35.39
2022-10-11T11:15:57.734Z,35.95
2022-10-11T11:16:58.074Z,36.61
2022-10-11T11:17:58.284Z,37.41
2022-10-11T11:18:58.589Z,37.77
2022-10-11T11:19:58.909Z,38.17
2022-10-11T11:20:59.244Z,38.29
2022-10-11T11:21:59.564Z,37.73
2022-10-11T11:23:03.699Z,36.73
2022-10-11T11:24:04.027Z,36.35
2022-10-11T11:25:00.499Z,36.58
2022-10-11T11:26:00.830Z,36.30
2022-10-11T11:27:01.185Z,37.17
2022-10-11T11:28:01.476Z,37.68
2022-10-11T11:29:01.797Z,38.39
2022-10-11T11:30:02.135Z,38.87
2022-10-11T11:31:02.448Z,38.89
2022-10-11T11:32:02.594Z,38.71
2022-10-11T11:33:02.894Z,38.70
2022-10-11T11:34:03.223Z,38.55
2022-10-11T11:35:07.382Z,38.73
2022-10-11T11:36:04.199Z,38.80
2022-10-11T11:37:04.110Z,39.15
2022-10-11T11:38:06.493Z,39.43
2022-10-11T11:39:04.635Z,39.44
2022-10-11T11:40:04.928Z,39.47
2022-10-11T11:41:05.548Z,39.40
2022-10-11T11:42:05.485Z,39.62
2022-10-11T11:43:05.810Z,40.10
2022-10-11T11:44:07.987Z,39.39
2022-10-11T11:45:06.390Z,38.07
2022-10-11T11:46:06.729Z,38.55
2022-10-11T11:47:06.929Z,38.10
2022-10-11T11:48:07.255Z,38.08
2022-10-11T11:49:12.096Z,38.38
2022-10-11T11:50:08.846Z,38.39
2022-10-11T11:51:08.402Z,38.70
2022-10-11T11:52:08.407Z,38.82
2022-10-11T11:53:08.734Z,38.76
2022-10-11T11:54:09.067Z,38.63
2022-10-11T11:55:09.370Z,38.76
2022-10-11T11:56:09.675Z,38.76
2022-10-11T11:57:09.990Z,38.44
2022-10-11T11:58:10.339Z,37.98
2022-10-11T11:59:10.669Z,37.88
2022-10-11T12:00:10.964Z,37.76
2022-10-11T12:01:11.324Z,37.96
2022-10-11T12:02:11.536Z,38.18
2022-10-11T12:03:11.835Z,38.52
2022-10-11T12:04:12.128Z,38.64
2022-10-11T12:05:12.422Z,38.57
2022-10-11T12:06:12.794Z,38.45
2022-10-11T12:07:17.328Z,38.29
2022-10-11T12:08:13.242Z,38.42
2022-10-11T12:09:13.551Z,38.52
2022-10-11T12:10:13.885Z,38.52
2022-10-11T12:11:14.184Z,38.76
2022-10-11T12:12:14.492Z,38.87
2022-10-11T12:13:14.780Z,38.52
2022-10-11T12:14:15.084Z,37.99
2022-10-11T12:15:15.377Z,38.33
2022-10-11T12:16:15.721Z,38.36
2022-10-11T12:17:16.043Z,38.61
2022-10-11T12:18:16.323Z,39.03
2022-10-11T12:19:16.602Z,39.46
2022-10-11T12:20:17.692Z,39.73
2022-10-11T12:21:17.166Z,39.46
2022-10-11T12:22:17.482Z,39.67
2022-10-11T12:23:19.936Z,39.84
2022-10-11T12:24:17.980Z,39.77
2022-10-11T12:25:18.828Z,39.69
2022-10-11T12:26:18.631Z,39.80
2022-10-11T12:27:18.962Z,39.74
2022-10-11T12:28:19.300Z,39.47
2022-10-11T12:29:20.798Z,38.57
2022-10-11T12:30:19.947Z,38.22
2022-10-11T12:31:20.143Z,38.29
2022-10-11T12:32:20.443Z,38.41
2022-10-11T12:33:20.779Z,38.76
2022-10-11T12:34:20.979Z,38.85
2022-10-11T12:35:21.288Z,38.71
2022-10-11T12:36:23.412Z,38.33
2022-10-11T12:37:21.985Z,38.29
2022-10-11T12:38:22.178Z,38.15
2022-10-11T12:39:26.294Z,38.12
2022-10-11T12:40:22.806Z,38.07
2022-10-11T12:41:23.109Z,38.45
2022-10-11T12:42:23.423Z,38.78
2022-10-11T12:43:23.720Z,39.25
2022-10-11T12:44:25.844Z,39.49
2022-10-11T12:45:24.390Z,39.88
2022-10-11T12:46:24.688Z,40.23
2022-10-11T12:47:24.982Z,40.33
2022-10-11T12:48:28.660Z,40.08
2022-10-11T12:49:26.561Z,39.96
2022-10-11T12:50:25.839Z,39.93
2022-10-11T12:51:26.026Z,39.88
2022-10-11T12:52:26.415Z,39.76
2022-10-11T12:53:30.356Z,38.17
2022-10-11T12:54:29.960Z,37.17
2022-10-11T12:55:28.116Z,37.47
2022-10-11T12:56:27.409Z,37.66
2022-10-11T12:57:27.624Z,38.05
2022-10-11T12:58:27.948Z,38.32
2022-10-11T12:59:28.272Z,38.73
2022-10-11T13:00:28.566Z,39.24
2022-10-11T13:01:28.939Z,39.40
2022-10-11T13:02:31.047Z,39.44
2022-10-11T13:03:32.280Z,39.32
2022-10-11T13:04:29.795Z,39.24
2022-10-11T13:05:30.110Z,39.21
2022-10-11T13:06:30.417Z,38.85
2022-10-11T13:07:30.747Z,38.78
2022-10-11T13:08:31.044Z,38.73
2022-10-11T13:09:35.386Z,39.15
2022-10-11T13:10:31.629Z,39.15
2022-10-11T13:11:31.941Z,39.21
2022-10-11T13:12:32.279Z,39.17
2022-10-11T13:13:32.568Z,39.13
2022-10-11T13:14:32.869Z,38.79
2022-10-11T13:15:33.180Z,38.64
2022-10-11T13:16:34.265Z,38.52
2022-10-11T13:17:38.196Z,38.57
2022-10-11T13:18:35.070Z,38.32
2022-10-11T13:19:34.404Z,38.04
2022-10-11T13:20:37.434Z,37.85
2022-10-11T13:21:35.879Z,37.88
2022-10-11T13:22:35.134Z,37.99
2022-10-11T13:23:35.443Z,37.85
2022-10-11T13:24:35.766Z,37.51
2022-10-11T13:25:36.066Z,36.97
2022-10-11T13:26:36.380Z,36.63
2022-10-11T13:27:36.688Z,36.41
2022-10-11T13:28:37.066Z,36.29
2022-10-11T13:29:41.165Z,36.04
2022-10-11T13:30:37.513Z,35.74
2022-10-11T13:31:37.820Z,35.55
2022-10-11T13:32:38.124Z,35.17
2022-10-11T13:33:39.189Z,34.86
2022-10-11T13:34:38.703Z,34.63
2022-10-11T13:35:39.036Z,34.38
2022-10-11T13:36:39.369Z,34.09
2022-10-11T13:37:39.705Z,33.61
2022-10-11T13:38:39.991Z,33.20
2022-10-11T13:39:40.290Z,32.69
2022-10-11T13:40:40.584Z,32.21
2022-10-11T13:41:40.899Z,32.11
2022-10-11T13:42:41.220Z,32.13
2022-10-11T13:43:41.525Z,32.15
2022-10-11T13:44:41.823Z,32.14
2022-10-11T13:45:42.150Z,32.20
2022-10-11T13:46:42.445Z,32.10
2022-10-11T13:47:42.774Z,31.99
2022-10-11T13:48:43.082Z,31.84
2022-10-11T13:49:43.376Z,31.68
2022-10-11T13:50:43.670Z,31.49
2022-10-11T13:51:43.963Z,31.33
2022-10-11T13:52:44.332Z,31.11
2022-10-11T13:53:44.514Z,30.80
2022-10-11T13:54:44.826Z,30.47
2022-10-11T13:55:45.183Z,30.11
2022-10-11T13:56:45.474Z,29.78
2022-10-11T13:57:45.790Z,29.44
2022-10-11T13:58:46.094Z,29.15
2022-10-11T13:59:46.393Z,28.97
2022-10-11T14:00:46.731Z,28.84
2022-10-11T14:01:47.090Z,28.68
2022-10-11T14:02:47.327Z,28.53
2022-10-11T14:03:47.637Z,28.46
2022-10-11T14:04:47.936Z,28.29
2022-10-11T14:05:48.271Z,28.22
2022-10-11T14:06:48.573Z,28.13
2022-10-11T14:07:48.866Z,28.06
2022-10-11T14:08:49.216Z,27.89
2022-10-11T14:09:49.398Z,27.73
2022-10-11T14:10:54.211Z,27.66
2022-10-11T14:11:50.997Z,27.42
2022-10-11T14:12:50.236Z,27.23
2022-10-11T14:13:50.550Z,27.10
2022-10-11T14:14:54.695Z,26.87
2022-10-11T14:15:51.202Z,26.72
2022-10-11T14:16:51.529Z,26.68
2022-10-11T14:17:51.823Z,26.65
2022-10-11T14:18:52.146Z,26.54
2022-10-11T14:19:52.449Z,26.43
2022-10-11T14:20:52.747Z,26.37
2022-10-11T14:21:53.052Z,26.35
2022-10-11T14:22:53.521Z,26.24
2022-10-11T14:23:53.658Z,26.21
2022-10-11T14:24:53.962Z,26.24
2022-10-11T14:25:54.181Z,26.22
2022-10-11T14:26:54.532Z,26.18
2022-10-11T14:27:54.729Z,26.17
2022-10-11T14:28:55.077Z,26.12
2022-10-11T14:30:20.396Z,26.02
2022-10-11T14:30:56.595Z,25.84
2022-10-11T14:31:55.894Z,25.67
2022-10-11T14:32:56.052Z,25.46
2022-10-11T14:33:56.384Z,25.27
2022-10-11T14:34:56.686Z,25.05
2022-10-11T14:35:57.055Z,24.92
2022-10-11T14:36:57.247Z,24.82
2022-10-11T14:37:57.639Z,24.73
2022-10-11T14:38:57.981Z,24.57
2022-10-11T14:39:58.114Z,24.41
2022-10-11T14:40:58.451Z,24.23
2022-10-11T14:41:58.631Z,24.00
2022-10-11T14:42:58.933Z,23.87
2022-10-11T14:43:59.239Z,23.67
2022-10-11T14:44:59.530Z,23.55
2022-10-11T14:45:59.859Z,23.43
2022-10-11T14:47:00.153Z,23.38
2022-10-11T14:48:00.481Z,23.23
2022-10-11T14:49:00.786Z,23.17
2022-10-11T14:50:01.092Z,23.08
2022-10-11T14:51:01.411Z,23.07
2022-10-11T14:52:01.712Z,23.02
2022-10-11T14:53:02.055Z,23.02
2022-10-11T14:54:06.375Z,22.96
2022-10-11T14:55:02.602Z,22.87
2022-10-11T14:56:03.159Z,22.75
2022-10-11T14:57:03.150Z,22.65
2022-10-11T14:58:07.224Z,22.59
2022-10-11T14:59:03.684Z,22.43
2022-10-11T15:00:03.984Z,22.29
2022-10-11T15:01:04.364Z,22.28